createdAt,value
2023-04-18T00:03:57.609Z,101010.03
2023-04-18T00:06:39.296Z,101005.59
2023-04-18T00:09:13.831Z,101006.38
2023-04-18T00:11:52.183Z,101009.66
2023-04-18T00:14:54.160Z,101000.59
2023-04-18T00:17:33.521Z,101008.06
2023-04-18T00:20:12.115Z,101004.31
2023-04-18T00:23:02.502Z,101002.44
2023-04-18T00:26:04.982Z,101006.69
2023-04-18T00:28:45.116Z,101000.44
2023-04-18T00:32:46.837Z,101004.75
2023-04-18T00:35:07.068Z,101009.28
2023-04-18T00:37:35.095Z,101007.28
2023-04-18T00:40:02.223Z,101001.09
2023-04-18T00:42:32.233Z,101002.91
2023-04-18T00:45:01.669Z,100999.56
2023-04-18T00:47:31.668Z,101012.47
2023-04-18T00:50:28.855Z,101002.69
2023-04-18T00:53:01.478Z,101002.53
2023-04-18T00:55:58.962Z,101005.59
2023-04-18T00:58:59.753Z,101000.41
2023-04-18T01:01:47.496Z,100998.94
2023-04-18T01:04:30.105Z,101000.44
2023-04-18T01:09:46.691Z,101004.47
2023-04-18T01:12:16.424Z,101002.00
2023-04-18T01:15:12.903Z,100998.22
2023-04-18T01:17:46.432Z,100997.34
2023-04-18T01:20:14.014Z,100993.19
2023-04-18T01:22:53.669Z,100997.34
2023-04-18T01:25:43.624Z,100993.06
2023-04-18T01:28:20.158Z,100995.59
2023-04-18T01:33:41.291Z,100980.25
2023-04-18T01:36:15.742Z,100972.56
2023-04-18T01:39:06.225Z,100977.66
2023-04-18T01:41:41.388Z,100974.09
2023-04-18T01:44:17.972Z,100971.97
2023-04-18T01:47:15.853Z,100980.09
2023-04-18T01:49:52.598Z,100971.41
2023-04-18T01:52:49.977Z,100968.88
2023-04-18T01:55:28.865Z,100963.22
2023-04-18T01:57:56.088Z,100964.72
2023-04-18T02:00:24.476Z,100968.03
2023-04-18T02:02:54.810Z,100963.66
2023-04-18T02:05:22.005Z,100959.53
2023-04-18T02:07:52.042Z,100955.97
2023-04-18T02:10:28.721Z,100969.84
2023-04-18T02:13:01.377Z,100966.22
2023-04-18T02:15:29.704Z,100961.78
2023-04-18T02:18:03.126Z,100966.41
2023-04-18T02:20:37.595Z,100960.50
2023-04-18T02:23:11.915Z,100959.38
2023-04-18T02:25:40.024Z,100962.38
2023-04-18T02:28:17.105Z,100961.25
2023-04-18T02:30:44.159Z,100964.16
2023-04-18T02:33:14.823Z,100962.63
2023-04-18T02:35:42.750Z,100955.66
2023-04-18T02:38:17.458Z,100956.41
2023-04-18T02:40:44.565Z,100963.31
2023-04-18T02:43:11.609Z,100960.97
2023-04-18T02:45:38.836Z,100964.66
2023-04-18T02:48:05.837Z,100964.00
2023-04-18T02:50:32.879Z,100963.53
2023-04-18T02:53:00.477Z,100962.09
2023-04-18T02:55:35.788Z,100963.63
2023-04-18T02:58:02.894Z,100972.38
2023-04-18T03:00:29.930Z,100974.09
2023-04-18T03:03:00.288Z,100962.75
2023-04-18T03:05:27.346Z,100968.53
2023-04-18T03:07:57.123Z,100973.03
2023-04-18T03:10:24.314Z,100967.66
2023-04-18T03:12:54.457Z,100972.94
2023-04-18T03:15:24.362Z,100967.38
2023-04-18T03:17:51.577Z,100969.69
2023-04-18T03:20:21.258Z,100966.19
2023-04-18T03:22:48.277Z,100965.34
2023-04-18T03:25:15.782Z,100964.94
2023-04-18T03:27:47.745Z,100968.81
2023-04-18T03:30:15.879Z,100968.47
2023-04-18T03:32:49.182Z,100965.13
2023-04-18T03:35:29.931Z,100965.16
2023-04-18T03:37:57.814Z,100970.94
2023-04-18T03:40:25.150Z,100973.19
2023-04-18T03:42:52.211Z,100976.91
2023-04-18T03:45:19.133Z,100976.47
2023-04-18T03:47:46.472Z,100974.59
2023-04-18T03:50:13.440Z,100969.94
2023-04-18T03:52:40.558Z,100973.75
2023-04-18T03:55:07.812Z,100971.28
2023-04-18T03:57:37.969Z,100975.84
2023-04-18T04:00:06.179Z,100971.09
2023-04-18T04:02:36.593Z,100980.34
2023-04-18T04:05:03.870Z,100980.25
2023-04-18T04:07:32.312Z,100982.94
2023-04-18T04:09:59.355Z,100978.63
2023-04-18T04:12:29.442Z,100984.19
2023-04-18T04:15:07.663Z,100989.22
2023-04-18T04:17:37.722Z,100988.44
2023-04-18T04:20:05.636Z,100988.72
2023-04-18T04:22:33.057Z,100986.97
2023-04-18T04:25:06.832Z,100986.09
2023-04-18T04:27:39.263Z,100994.66
2023-04-18T04:30:11.914Z,100986.88
2023-04-18T04:32:43.278Z,100983.63
2023-04-18T04:35:14.596Z,100994.25
2023-04-18T04:37:48.201Z,100994.09
2023-04-18T04:40:15.958Z,100997.72
2023-04-18T04:42:46.203Z,100994.34
2023-04-18T04:45:15.947Z,100992.38
2023-04-18T04:47:49.127Z,101004.72
2023-04-18T04:50:16.162Z,101003.50
2023-04-18T04:52:49.498Z,101007.13
2023-04-18T04:55:17.709Z,101010.88
2023-04-18T04:57:48.076Z,101017.00
2023-04-18T05:00:21.932Z,101015.13
2023-04-18T05:02:49.711Z,101010.63
2023-04-18T05:05:17.929Z,101014.41
2023-04-18T05:07:47.953Z,101013.69
2023-04-18T05:10:25.404Z,101027.69
2023-04-18T05:13:04.797Z,101018.75
2023-04-18T05:15:35.298Z,101019.69
2023-04-18T05:18:10.062Z,101021.97
2023-04-18T05:20:38.725Z,101020.16
2023-04-18T05:23:05.721Z,101021.41
2023-04-18T05:25:35.921Z,101029.06
2023-04-18T05:28:09.312Z,101021.88
2023-04-18T05:31:04.357Z,101035.50
2023-04-18T05:33:33.937Z,101027.44
2023-04-18T05:36:04.334Z,101037.97
2023-04-18T05:38:31.391Z,101036.78
2023-04-18T05:41:00.584Z,101032.28
2023-04-18T05:43:29.121Z,101033.78
2023-04-18T05:45:58.957Z,101038.91
2023-04-18T05:48:26.143Z,101040.72
2023-04-18T05:50:59.431Z,101042.38
2023-04-18T05:53:33.945Z,101044.78
2023-04-18T05:56:04.004Z,101043.03
2023-04-18T05:58:33.840Z,101042.69
2023-04-18T06:01:01.067Z,101043.81
2023-04-18T06:03:28.469Z,101049.38
2023-04-18T06:06:00.499Z,101045.50
2023-04-18T06:08:27.714Z,101049.56
2023-04-18T06:10:54.753Z,101051.13
2023-04-18T06:13:27.819Z,101052.97
2023-04-18T06:15:55.004Z,101053.75
2023-04-18T06:18:22.076Z,101052.88
2023-04-18T06:20:49.188Z,101058.53
2023-04-18T06:23:22.087Z,101060.03
2023-04-18T06:25:55.410Z,101054.56
2023-04-18T06:28:27.523Z,101055.66
2023-04-18T06:30:57.499Z,101062.78
2023-04-18T06:33:36.849Z,101061.09
2023-04-18T06:36:05.790Z,101062.00
2023-04-18T06:38:38.869Z,101067.75
2023-04-18T06:41:05.948Z,101068.06
2023-04-18T06:43:52.039Z,101065.06
2023-04-18T06:46:28.735Z,101065.25
2023-04-18T06:48:57.460Z,101061.72
2023-04-18T06:51:24.657Z,101059.97
2023-04-18T06:53:54.641Z,101066.38
2023-04-18T06:56:21.902Z,101062.78
2023-04-18T06:58:53.185Z,101067.91
2023-04-18T07:01:20.488Z,101058.78
2023-04-18T07:03:47.677Z,101069.16
2023-04-18T07:06:15.910Z,101064.31
2023-04-18T07:08:49.064Z,101067.03
2023-04-18T07:11:18.654Z,101073.06
2023-04-18T07:13:49.661Z,101077.84
2023-04-18T07:16:19.982Z,101073.50
2023-04-18T07:18:51.295Z,101078.66
2023-04-18T07:21:25.863Z,101070.50
2023-04-18T07:23:56.548Z,101078.97
2023-04-18T07:26:43.294Z,101064.75
2023-04-18T07:29:10.225Z,101070.91
2023-04-18T07:31:39.455Z,101072.31
2023-04-18T07:34:06.608Z,101074.06
2023-04-18T07:36:42.461Z,101073.00
2023-04-18T07:39:09.842Z,101089.13
2023-04-18T07:41:36.829Z,101077.66
2023-04-18T07:44:16.298Z,101083.81
2023-04-18T07:46:43.782Z,101080.50
2023-04-18T07:49:14.092Z,101078.19
2023-04-18T07:51:44.504Z,101077.59
2023-04-18T07:54:11.669Z,101088.31
2023-04-18T07:56:38.916Z,101076.16
2023-04-18T07:59:06.140Z,101077.19
2023-04-18T08:01:33.511Z,101083.91
2023-04-18T08:04:02.337Z,101083.56
2023-04-18T08:06:30.996Z,101080.97
2023-04-18T08:08:59.622Z,101082.81
2023-04-18T08:11:32.605Z,101091.16
2023-04-18T08:14:00.089Z,101094.19
2023-04-18T08:16:27.702Z,101091.78
2023-04-18T08:18:54.704Z,101086.38
2023-04-18T08:21:24.982Z,101094.00
2023-04-18T08:23:52.085Z,101101.97
2023-04-18T08:26:28.261Z,101095.91
2023-04-18T08:29:02.820Z,101098.72
2023-04-18T08:31:31.894Z,101103.28
2023-04-18T08:33:59.047Z,101107.84
2023-04-18T08:36:26.649Z,101098.56
2023-04-18T08:38:56.701Z,101101.44
2023-04-18T08:41:27.725Z,101093.59
2023-04-18T08:43:59.323Z,101102.94
2023-04-18T08:46:36.120Z,101104.47
2023-04-18T08:49:06.466Z,101105.53
2023-04-18T08:51:34.782Z,101109.41
2023-04-18T08:54:06.570Z,101113.72
2023-04-18T08:56:38.060Z,101112.56
2023-04-18T08:59:08.440Z,101111.19
2023-04-18T09:02:07.905Z,101114.88
2023-04-18T09:04:42.444Z,101119.28
2023-04-18T09:07:17.273Z,101123.63
2023-04-18T09:09:58.027Z,101117.34
2023-04-18T09:12:28.037Z,101122.03
2023-04-18T09:15:16.940Z,101129.63
2023-04-18T09:17:54.427Z,101119.81
2023-04-18T09:20:47.860Z,101132.44
2023-04-18T09:23:34.023Z,101131.59
2023-04-18T09:26:01.012Z,101119.69
2023-04-18T09:28:43.149Z,101122.03
2023-04-18T09:31:13.356Z,101124.72
2023-04-18T09:33:57.145Z,101125.88
2023-04-18T09:36:30.624Z,101133.31
2023-04-18T09:39:04.506Z,101124.13
2023-04-18T09:41:39.745Z,101123.84
2023-04-18T09:44:25.223Z,101124.22
2023-04-18T09:46:52.574Z,101122.03
2023-04-18T09:49:23.617Z,101125.19
2023-04-18T09:52:04.696Z,101125.63
2023-04-18T09:54:38.723Z,101111.34
2023-04-18T09:57:11.609Z,101111.16
2023-04-18T09:59:51.816Z,101113.47
2023-04-18T10:02:26.788Z,101105.56
2023-04-18T10:04:56.303Z,101107.84
2023-04-18T10:07:43.678Z,101103.28
2023-04-18T10:10:11.066Z,101102.16
2023-04-18T10:12:41.913Z,101098.78
2023-04-18T10:15:11.880Z,101100.09
2023-04-18T10:20:35.248Z,101095.19
2023-04-18T10:23:31.262Z,101095.94
2023-04-18T10:25:59.398Z,101098.16
2023-04-18T10:28:33.319Z,101089.25
2023-04-18T10:31:10.185Z,101088.34
2023-04-18T10:34:05.114Z,101102.66
2023-04-18T10:36:38.609Z,101096.47
2023-04-18T10:39:57.570Z,101089.59
2023-04-18T10:42:59.902Z,101086.00
2023-04-18T10:45:34.184Z,101085.47
2023-04-18T10:51:18.106Z,101080.13
2023-04-18T10:53:57.817Z,101088.38
2023-04-18T10:56:26.447Z,101082.94
2023-04-18T10:59:02.168Z,101074.09
2023-04-18T11:01:37.554Z,101084.34
2023-04-18T11:04:14.544Z,101087.44
2023-04-18T11:06:53.559Z,101075.81
2023-04-18T11:09:24.244Z,101081.91
2023-04-18T11:12:12.458Z,101080.44
2023-04-18T11:14:45.016Z,101081.28
2023-04-18T11:17:22.448Z,101083.66
2023-04-18T11:19:50.373Z,101078.13
2023-04-18T11:22:21.313Z,101089.63
2023-04-18T11:25:14.357Z,101090.03
2023-04-18T11:27:43.318Z,101091.84
2023-04-18T11:30:11.722Z,101090.75
2023-04-18T11:32:41.666Z,101082.72
2023-04-18T11:35:12.760Z,101087.91
2023-04-18T11:37:46.633Z,101091.50
2023-04-18T11:40:14.642Z,101087.31
2023-04-18T11:42:42.020Z,101089.53
2023-04-18T11:45:21.055Z,101092.53
2023-04-18T11:47:56.772Z,101091.19
2023-04-18T11:50:24.013Z,101097.97
2023-04-18T11:52:53.509Z,101100.50
2023-04-18T11:55:23.207Z,101098.03
2023-04-18T11:58:04.695Z,101091.75
2023-04-18T12:00:43.661Z,101091.97
2023-04-18T12:03:19.930Z,101082.41
2023-04-18T12:05:51.001Z,101093.72
2023-04-18T12:08:21.904Z,101097.88
2023-04-18T12:10:53.917Z,101094.97
2023-04-18T12:13:32.736Z,101101.41
2023-04-18T12:16:02.353Z,101098.47
2023-04-18T12:18:32.810Z,101095.91
2023-04-18T12:21:09.023Z,101093.03
2023-04-18T12:23:51.740Z,101100.22
2023-04-18T12:26:20.749Z,101102.88
2023-04-18T12:28:51.380Z,101102.22
2023-04-18T12:31:31.195Z,101100.75
2023-04-18T12:34:01.728Z,101101.78
2023-04-18T12:36:39.603Z,101097.84
2023-04-18T12:39:07.751Z,101107.25
2023-04-18T12:41:48.962Z,101109.19
2023-04-18T12:44:16.769Z,101109.19
2023-04-18T12:46:46.837Z,101096.56
2023-04-18T12:49:13.746Z,101108.13
2023-04-18T12:52:18.733Z,101103.00
2023-04-18T12:54:51.659Z,101101.22
2023-04-18T12:57:26.187Z,101097.06
2023-04-18T12:59:53.266Z,101094.13
2023-04-18T13:02:22.156Z,101098.97
2023-04-18T13:04:52.196Z,101097.78
2023-04-18T13:07:19.816Z,101091.47
2023-04-18T13:09:46.956Z,101086.19
2023-04-18T13:12:18.631Z,101088.66
2023-04-18T13:14:45.534Z,101086.88
2023-04-18T13:17:16.433Z,101081.28
2023-04-18T13:19:46.063Z,101095.28
2023-04-18T13:22:13.152Z,101093.47
2023-04-18T13:24:46.153Z,101095.84
2023-04-18T13:27:20.053Z,101084.47
2023-04-18T13:29:49.337Z,101085.28
2023-04-18T13:32:16.359Z,101094.81
2023-04-18T13:34:52.727Z,101096.78
2023-04-18T13:37:19.821Z,101092.53
2023-04-18T13:39:46.794Z,101088.63
2023-04-18T13:42:15.927Z,101081.09
2023-04-18T13:44:43.082Z,101078.03
2023-04-18T13:47:09.975Z,101080.78
2023-04-18T13:50:00.230Z,101081.91
2023-04-18T13:52:32.128Z,101075.06
2023-04-18T13:55:02.196Z,101081.69
2023-04-18T13:57:37.267Z,101073.06
2023-04-18T14:00:16.528Z,101079.13
2023-04-18T14:02:46.818Z,101071.16
2023-04-18T14:05:14.036Z,101070.22
2023-04-18T14:07:45.775Z,101074.34
2023-04-18T14:10:21.900Z,101072.00
2023-04-18T14:12:54.954Z,101074.94
2023-04-18T14:15:21.949Z,101075.78
2023-04-18T14:17:55.865Z,101076.94
2023-04-18T14:20:23.029Z,101080.16
2023-04-18T14:23:05.006Z,101075.72
2023-04-18T14:25:31.904Z,101074.94
2023-04-18T14:28:24.507Z,101076.97
2023-04-18T14:31:02.747Z,101076.50
2023-04-18T14:33:32.758Z,101077.31
2023-04-18T14:36:05.736Z,101078.97
2023-04-18T14:38:38.120Z,101074.41
2023-04-18T14:41:07.935Z,101074.41
2023-04-18T14:43:34.897Z,101079.03
2023-04-18T14:46:01.732Z,101082.69
2023-04-18T14:48:31.612Z,101080.09
2023-04-18T14:50:59.641Z,101079.16
2023-04-18T14:53:27.567Z,101073.94
2023-04-18T14:55:54.946Z,101076.97
2023-04-18T14:58:22.065Z,101076.13
2023-04-18T15:00:58.090Z,101076.97
2023-04-18T15:03:30.650Z,101073.00
2023-04-18T15:05:57.979Z,101069.41
2023-04-18T15:08:26.459Z,101070.50
2023-04-18T15:10:53.307Z,101059.00
2023-04-18T15:13:24.132Z,101063.78
2023-04-18T15:15:55.750Z,101065.16
2023-04-18T15:18:22.760Z,101062.84
2023-04-18T15:20:49.723Z,101060.91
2023-04-18T15:23:25.041Z,101074.84
2023-04-18T15:25:51.841Z,101072.88
2023-04-18T15:31:08.338Z,101057.63
2023-04-18T15:33:38.019Z,101053.72
2023-04-18T15:36:07.599Z,101059.19
2023-04-18T15:38:34.475Z,101067.75
2023-04-18T15:41:01.352Z,101063.78
2023-04-18T15:43:32.494Z,101067.44
2023-04-18T15:46:00.441Z,101054.38
2023-04-18T15:48:34.648Z,101057.03
2023-04-18T15:51:05.605Z,101060.72
2023-04-18T15:53:32.903Z,101059.06
2023-04-18T15:56:19.432Z,101067.41
2023-04-18T15:58:46.793Z,101064.78
2023-04-18T16:01:16.167Z,101067.72
2023-04-18T16:03:43.949Z,101063.78
2023-04-18T16:06:15.378Z,101064.84
2023-04-18T16:08:51.588Z,101071.28
2023-04-18T16:11:22.124Z,101065.97
2023-04-18T16:13:53.779Z,101064.66
2023-04-18T16:16:29.112Z,101067.19
2023-04-18T16:18:55.913Z,101075.00
2023-04-18T16:21:31.602Z,101070.81
2023-04-18T16:24:06.996Z,101079.91
2023-04-18T16:26:34.008Z,101083.63
2023-04-18T16:29:05.737Z,101082.41
2023-04-18T16:31:33.998Z,101084.47
2023-04-18T16:34:16.729Z,101079.34
2023-04-18T16:36:43.685Z,101082.69
2023-04-18T16:39:10.615Z,101081.72
2023-04-18T16:41:37.485Z,101082.63
2023-04-18T16:44:04.578Z,101081.50
2023-04-18T16:46:38.472Z,101077.53
2023-04-18T16:49:05.825Z,101079.19
2023-04-18T16:51:32.895Z,101081.03
2023-04-18T16:54:07.735Z,101085.00
2023-04-18T16:56:39.409Z,101087.13
2023-04-18T16:59:13.169Z,101088.84
2023-04-18T17:01:40.100Z,101095.97
2023-04-18T17:04:10.212Z,101099.91
2023-04-18T17:06:45.118Z,101099.34
2023-04-18T17:09:24.064Z,101103.63
2023-04-18T17:11:54.432Z,101104.47
2023-04-18T17:14:25.156Z,101096.38
2023-04-18T17:16:53.757Z,101103.38
2023-04-18T17:19:23.835Z,101101.91
2023-04-18T17:21:54.116Z,101096.25
2023-04-18T17:24:33.710Z,101104.75
2023-04-18T17:27:06.459Z,101104.63
2023-04-18T17:29:35.319Z,101104.03
2023-04-18T17:32:06.341Z,101108.34
2023-04-18T17:34:43.329Z,101113.56
2023-04-18T17:37:14.913Z,101110.91
2023-04-18T17:39:49.137Z,101116.84
2023-04-18T17:45:02.610Z,101122.53
2023-04-18T17:47:33.830Z,101124.69
2023-04-18T17:50:10.740Z,101124.69
2023-04-18T17:52:37.999Z,101124.91
2023-04-18T17:55:12.142Z,101132.03
2023-04-18T17:57:43.255Z,101131.81
2023-04-18T18:00:14.648Z,101138.66
2023-04-18T18:02:47.719Z,101139.38
2023-04-18T18:05:20.057Z,101134.03
2023-04-18T18:07:48.163Z,101137.88
2023-04-18T18:10:26.406Z,101137.84
2023-04-18T18:12:53.184Z,101146.78
2023-04-18T18:15:20.381Z,101144.78
2023-04-18T18:17:51.283Z,101145.53
2023-04-18T18:20:18.639Z,101147.44
2023-04-18T18:22:48.747Z,101145.31
2023-04-18T18:25:15.709Z,101142.34
2023-04-18T18:27:42.873Z,101143.47
2023-04-18T18:30:09.996Z,101150.41
2023-04-18T18:32:36.973Z,101154.34
2023-04-18T18:35:12.485Z,101157.44
2023-04-18T18:37:53.180Z,101162.03
2023-04-18T18:40:21.335Z,101170.97
2023-04-18T18:42:51.585Z,101179.19
2023-04-18T18:45:19.949Z,101188.03
2023-04-18T18:47:52.663Z,101181.75
2023-04-18T18:50:22.680Z,101195.09
2023-04-18T18:52:52.602Z,101202.88
2023-04-18T18:55:19.551Z,101207.88
2023-04-18T18:57:56.517Z,101207.22
2023-04-18T19:00:23.518Z,101213.69
2023-04-18T19:02:50.551Z,101214.66
2023-04-18T19:05:18.074Z,101212.00
2023-04-18T19:07:46.111Z,101215.56
2023-04-18T19:10:13.040Z,101212.13
2023-04-18T19:12:39.906Z,101221.81
2023-04-18T19:15:10.335Z,101223.47
2023-04-18T19:17:40.033Z,101224.56
2023-04-18T19:20:07.685Z,101222.84
2023-04-18T19:22:38.241Z,101221.81
2023-04-18T19:25:09.210Z,101224.56
2023-04-18T19:27:36.518Z,101226.16
2023-04-18T19:30:03.620Z,101228.78
2023-04-18T19:32:34.653Z,101228.66
2023-04-18T19:35:04.839Z,101227.47
2023-04-18T19:37:34.645Z,101229.31
2023-04-18T19:40:02.993Z,101232.88
2023-04-18T19:42:29.952Z,101230.47
2023-04-18T19:45:06.542Z,101236.41
2023-04-18T19:47:34.227Z,101235.28
2023-04-18T19:50:08.765Z,101234.72
2023-04-18T19:52:36.548Z,101246.09
2023-04-18T19:55:03.570Z,101239.34
2023-04-18T19:57:39.161Z,101240.50
2023-04-18T20:00:16.210Z,101246.91
2023-04-18T20:02:44.696Z,101247.69
2023-04-18T20:05:13.194Z,101244.44
2023-04-18T20:07:43.194Z,101254.59
2023-04-18T20:10:16.237Z,101257.31
2023-04-18T20:12:50.217Z,101252.53
2023-04-18T20:15:17.252Z,101254.00
2023-04-18T20:17:44.093Z,101253.34
2023-04-18T20:20:14.283Z,101252.72
2023-04-18T20:22:48.049Z,101249.22
2023-04-18T20:25:14.932Z,101252.28
2023-04-18T20:27:54.503Z,101255.00
2023-04-18T20:30:22.499Z,101256.78
2023-04-18T20:32:52.555Z,101258.56
2023-04-18T20:35:28.516Z,101260.94
2023-04-18T20:37:55.772Z,101259.16
2023-04-18T20:40:30.598Z,101256.72
2023-04-18T20:43:07.024Z,101261.28
2023-04-18T20:45:37.832Z,101265.69
2023-04-18T20:48:10.936Z,101268.97
2023-04-18T20:50:44.057Z,101269.94
2023-04-18T20:53:13.944Z,101271.75
2023-04-18T20:55:44.046Z,101270.13
2023-04-18T20:58:14.992Z,101274.03
2023-04-18T21:00:50.483Z,101273.22
2023-04-18T21:03:19.939Z,101274.13
2023-04-18T21:05:47.230Z,101270.75
2023-04-18T21:08:14.158Z,101271.09
2023-04-18T21:10:41.056Z,101274.03
2023-04-18T21:13:13.124Z,101265.75
2023-04-18T21:15:55.010Z,101279.94
2023-04-18T21:18:31.128Z,101277.25
2023-04-18T21:21:08.730Z,101280.66
2023-04-18T21:23:42.251Z,101283.09
2023-04-18T21:26:17.016Z,101280.59
2023-04-18T21:29:04.965Z,101275.16
2023-04-18T21:31:34.291Z,101280.47
2023-04-18T21:34:05.338Z,101285.66
2023-04-18T21:39:27.110Z,101293.75
2023-04-18T21:42:09.114Z,101297.69
2023-04-18T21:44:36.745Z,101291.63
2023-04-18T21:47:06.745Z,101299.41
2023-04-18T21:49:56.760Z,101296.34
2023-04-18T21:52:23.693Z,101303.06
2023-04-18T21:54:59.244Z,101302.97
2023-04-18T21:57:33.713Z,101299.38
2023-04-18T22:00:16.750Z,101306.63
2023-04-18T22:02:45.115Z,101299.00
2023-04-18T22:05:20.169Z,101297.31
2023-04-18T22:07:57.379Z,101304.50
2023-04-18T22:10:26.201Z,101298.59
2023-04-18T22:12:54.600Z,101298.84
2023-04-18T22:15:22.115Z,101305.56
2023-04-18T22:17:50.567Z,101303.81
2023-04-18T22:20:23.762Z,101294.72
2023-04-18T22:22:59.476Z,101300.84
2023-04-18T22:25:31.416Z,101307.91
2023-04-18T22:28:06.308Z,101306.38
2023-04-18T22:30:41.327Z,101307.94
2023-04-18T22:33:17.209Z,101302.22
2023-04-18T22:35:44.104Z,101311.38
2023-04-18T22:38:13.601Z,101310.53
2023-04-18T22:40:41.787Z,101316.84
2023-04-18T22:43:11.895Z,101317.72
2023-04-18T22:45:45.043Z,101320.50
2023-04-18T22:48:13.632Z,101318.03
2023-04-18T22:50:43.802Z,101308.28
2023-04-18T22:53:17.759Z,101319.81
2023-04-18T22:55:55.634Z,101323.56
2023-04-18T22:58:37.646Z,101320.13
2023-04-18T23:01:04.647Z,101329.84
2023-04-18T23:03:40.789Z,101324.06
2023-04-18T23:06:08.250Z,101329.88
2023-04-18T23:08:44.396Z,101327.78
2023-04-18T23:11:13.693Z,101331.06
2023-04-18T23:13:52.008Z,101324.75
2023-04-18T23:16:18.968Z,101323.72
2023-04-18T23:18:45.938Z,101322.66
2023-04-18T23:21:17.896Z,101325.50
2023-04-18T23:23:52.660Z,101329.53
2023-04-18T23:26:22.646Z,101318.34
2023-04-18T23:29:18.788Z,101325.38
2023-04-18T23:31:45.749Z,101325.72
2023-04-18T23:34:18.565Z,101319.59
2023-04-18T23:36:53.455Z,101319.88
2023-04-18T23:39:21.847Z,101321.13
2023-04-18T23:41:56.038Z,101325.66
2023-04-18T23:44:23.298Z,101327.25
2023-04-18T23:46:50.947Z,101322.91
2023-04-18T23:49:17.949Z,101332.16
2023-04-18T23:54:34.350Z,101317.41
2023-04-18T23:57:02.032Z,101330.28
2023-04-18T23:59:28.969Z,101318.44
